EWG73X EDDL-LIML
Flight info
| Callsign | EWG73X |
|---|---|
| Flight time | 1h 14m |
| Altitude | 33000 |
| Route | DODEN7Z/05R DODEN Y852 NATOR DCT TRA DCT RIPUS DCT GERSA DCT SOSON DCT ODINA |
| Aircraft | A320/M-SDE3FGHIRWY/LB1 |
Departure
| Time | 2026-05-07 18:22 |
|---|---|
| Airport | Düsseldorf Airport (EDDL) |
Arrival
| Time | 2026-05-07 19:36 |
|---|---|
| Airport | Milano Linate Airport (LIML) |
| Time | Latitude | Longitude | Altitude | Speed | Heading |
|---|---|---|---|---|---|
| 2026-05-07 17:51 | 51.28154 | 6.76737 | 114 ft | 0 kts | 276° |
| 2026-05-07 18:11 | 51.28152 | 6.76774 | 115 ft | 4 kts | 270° |
| 2026-05-07 18:11 | 51.28153 | 6.76799 | 116 ft | 4 kts | 233° |
| 2026-05-07 18:11 | 51.28179 | 6.76832 | 116 ft | 4 kts | 204° |
| 2026-05-07 18:11 | 51.28204 | 6.76842 | 115 ft | 4 kts | 187° |
| 2026-05-07 18:12 | 51.28231 | 6.76846 | 118 ft | 4 kts | 186° |
| 2026-05-07 18:12 | 51.28258 | 6.76851 | 118 ft | 4 kts | 187° |
| 2026-05-07 18:12 | 51.28284 | 6.76857 | 118 ft | 4 kts | 189° |
| 2026-05-07 18:12 | 51.28309 | 6.76868 | 116 ft | 4 kts | 213° |
| 2026-05-07 18:13 | 51.28328 | 6.76897 | 114 ft | 4 kts | 232° |
| 2026-05-07 18:13 | 51.28344 | 6.76931 | 113 ft | 4 kts | 232° |
| 2026-05-07 18:13 | 51.28359 | 6.76963 | 114 ft | 2 kts | 233° |
| 2026-05-07 18:13 | 51.28360 | 6.76965 | 114 ft | 0 kts | 233° |
| 2026-05-07 18:16 | 51.28360 | 6.76964 | 114 ft | 1 kts | 233° |
| 2026-05-07 18:16 | 51.28352 | 6.76945 | 114 ft | 3 kts | 241° |
| 2026-05-07 18:16 | 51.28345 | 6.76899 | 114 ft | 5 kts | 267° |
| 2026-05-07 18:17 | 51.28350 | 6.76828 | 118 ft | 7 kts | 277° |
| 2026-05-07 18:17 | 51.28365 | 6.76740 | 114 ft | 9 kts | 302° |
| 2026-05-07 18:17 | 51.28414 | 6.76651 | 117 ft | 12 kts | 285° |
| 2026-05-07 18:17 | 51.28369 | 6.76521 | 117 ft | 14 kts | 232° |
| 2026-05-07 18:18 | 51.28313 | 6.76404 | 116 ft | 13 kts | 232° |
| 2026-05-07 18:18 | 51.28255 | 6.76283 | 115 ft | 14 kts | 232° |
| 2026-05-07 18:18 | 51.28192 | 6.76150 | 116 ft | 16 kts | 233° |
| 2026-05-07 18:18 | 51.28124 | 6.76007 | 116 ft | 16 kts | 232° |
| 2026-05-07 18:19 | 51.28060 | 6.75874 | 116 ft | 14 kts | 233° |
| 2026-05-07 18:19 | 51.28004 | 6.75755 | 116 ft | 13 kts | 232° |
| 2026-05-07 18:19 | 51.27947 | 6.75635 | 117 ft | 14 kts | 232° |
| 2026-05-07 18:19 | 51.27887 | 6.75511 | 114 ft | 14 kts | 232° |
| 2026-05-07 18:20 | 51.27841 | 6.75389 | 117 ft | 12 kts | 266° |
| 2026-05-07 18:20 | 51.27870 | 6.75328 | 115 ft | 6 kts | 328° |
| 2026-05-07 18:20 | 51.27915 | 6.75291 | 113 ft | 9 kts | 333° |
| 2026-05-07 18:20 | 51.27989 | 6.75280 | 115 ft | 12 kts | 23° |
| 2026-05-07 18:21 | 51.28044 | 6.75373 | 114 ft | 4 kts | 52° |
| 2026-05-07 18:21 | 51.28049 | 6.75383 | 114 ft | 7 kts | 52° |
| 2026-05-07 18:21 | 51.28248 | 6.75801 | 116 ft | 87 kts | 53° |
| 2026-05-07 18:21 | 51.28752 | 6.76861 | 120 ft | 150 kts | 53° |
| 2026-05-07 18:22 | 51.29424 | 6.78290 | 669 ft | 163 kts | 53° |
| 2026-05-07 18:22 | 51.29874 | 6.79250 | 1258 ft | 163 kts | 53° |
| 2026-05-07 18:22 | 51.30819 | 6.81241 | 1965 ft | 180 kts | 52° |
| 2026-05-07 18:22 | 51.31624 | 6.82931 | 2248 ft | 203 kts | 52° |
| 2026-05-07 18:23 | 51.32532 | 6.84838 | 2624 ft | 227 kts | 52° |
| 2026-05-07 18:23 | 51.33536 | 6.86959 | 3056 ft | 249 kts | 53° |
| 2026-05-07 18:23 | 51.34504 | 6.89304 | 3847 ft | 257 kts | 63° |
| 2026-05-07 18:23 | 51.35050 | 6.92052 | 4718 ft | 264 kts | 80° |
| 2026-05-07 18:24 | 51.35075 | 6.95010 | 5582 ft | 269 kts | 97° |
| 2026-05-07 18:24 | 51.34770 | 6.97996 | 6435 ft | 274 kts | 98° |
| 2026-05-07 18:24 | 51.34461 | 7.01028 | 7235 ft | 279 kts | 98° |
| 2026-05-07 18:24 | 51.34149 | 7.04108 | 8046 ft | 283 kts | 99° |
| 2026-05-07 18:25 | 51.33832 | 7.07234 | 8853 ft | 287 kts | 99° |
| 2026-05-07 18:25 | 51.33508 | 7.10412 | 9665 ft | 292 kts | 99° |
| 2026-05-07 18:25 | 51.33173 | 7.13635 | 10402 ft | 298 kts | 102° |
| 2026-05-07 18:25 | 51.32490 | 7.16884 | 10666 ft | 320 kts | 117° |
| 2026-05-07 18:26 | 51.31234 | 7.19944 | 10964 ft | 338 kts | 133° |
| 2026-05-07 18:26 | 51.29551 | 7.22623 | 11597 ft | 344 kts | 136° |
| 2026-05-07 18:26 | 51.27837 | 7.25320 | 12318 ft | 348 kts | 136° |
| 2026-05-07 18:26 | 51.26104 | 7.28048 | 13028 ft | 352 kts | 136° |
| 2026-05-07 18:27 | 51.24352 | 7.30802 | 13762 ft | 355 kts | 136° |
| 2026-05-07 18:27 | 51.22582 | 7.33574 | 14399 ft | 358 kts | 136° |
| 2026-05-07 18:27 | 51.20790 | 7.36368 | 14901 ft | 362 kts | 137° |
| 2026-05-07 18:27 | 51.19573 | 7.38260 | 15010 ft | 362 kts | 137° |
| 2026-05-07 18:28 | 51.17182 | 7.41974 | 15071 ft | 362 kts | 137° |
| 2026-05-07 18:28 | 51.15378 | 7.44774 | 15077 ft | 362 kts | 137° |
| 2026-05-07 18:28 | 51.13565 | 7.47584 | 15348 ft | 366 kts | 137° |
| 2026-05-07 18:28 | 51.11739 | 7.50412 | 16035 ft | 367 kts | 137° |
| 2026-05-07 18:29 | 51.10499 | 7.52331 | 16475 ft | 369 kts | 137° |
| 2026-05-07 18:29 | 51.08651 | 7.55190 | 17081 ft | 373 kts | 137° |
| 2026-05-07 18:29 | 51.06783 | 7.58077 | 17688 ft | 376 kts | 137° |
| 2026-05-07 18:29 | 51.04899 | 7.60989 | 18280 ft | 380 kts | 137° |
| 2026-05-07 18:30 | 51.02995 | 7.63929 | 18803 ft | 383 kts | 137° |
| 2026-05-07 18:30 | 51.01072 | 7.66886 | 19326 ft | 386 kts | 137° |
| 2026-05-07 18:30 | 50.99083 | 7.69754 | 19835 ft | 387 kts | 146° |
| 2026-05-07 18:30 | 50.96714 | 7.71743 | 20332 ft | 387 kts | 162° |
| 2026-05-07 18:31 | 50.94164 | 7.73136 | 20844 ft | 389 kts | 163° |
| 2026-05-07 18:31 | 50.91593 | 7.74508 | 21344 ft | 391 kts | 163° |
| 2026-05-07 18:31 | 50.89004 | 7.75880 | 21839 ft | 394 kts | 163° |
| 2026-05-07 18:31 | 50.86398 | 7.77258 | 22337 ft | 396 kts | 163° |
| 2026-05-07 18:32 | 50.83777 | 7.78644 | 22816 ft | 399 kts | 163° |
| 2026-05-07 18:32 | 50.81138 | 7.80043 | 23282 ft | 401 kts | 163° |
| 2026-05-07 18:32 | 50.78480 | 7.81454 | 23729 ft | 404 kts | 163° |
| 2026-05-07 18:32 | 50.75807 | 7.82870 | 24115 ft | 406 kts | 163° |
| 2026-05-07 18:33 | 50.73120 | 7.84293 | 24493 ft | 409 kts | 163° |
| 2026-05-07 18:33 | 50.70416 | 7.85724 | 24866 ft | 411 kts | 163° |
| 2026-05-07 18:33 | 50.67692 | 7.87163 | 25246 ft | 414 kts | 163° |
| 2026-05-07 18:33 | 50.64959 | 7.88607 | 25611 ft | 416 kts | 163° |
| 2026-05-07 18:34 | 50.62209 | 7.90063 | 25979 ft | 418 kts | 163° |
| 2026-05-07 18:34 | 50.59442 | 7.91526 | 26325 ft | 421 kts | 163° |
| 2026-05-07 18:34 | 50.56689 | 7.92978 | 26645 ft | 424 kts | 163° |
| 2026-05-07 18:34 | 50.53886 | 7.94453 | 26956 ft | 427 kts | 163° |
| 2026-05-07 18:35 | 50.51021 | 7.95955 | 27291 ft | 430 kts | 163° |
| 2026-05-07 18:35 | 50.48216 | 7.97420 | 27616 ft | 432 kts | 163° |
| 2026-05-07 18:35 | 50.45356 | 7.98911 | 27957 ft | 434 kts | 163° |
| 2026-05-07 18:35 | 50.42479 | 8.00410 | 28285 ft | 437 kts | 163° |
| 2026-05-07 18:36 | 50.39588 | 8.01913 | 28613 ft | 439 kts | 163° |
| 2026-05-07 18:36 | 50.36679 | 8.03425 | 28940 ft | 441 kts | 163° |
| 2026-05-07 18:36 | 50.33758 | 8.04947 | 29231 ft | 444 kts | 163° |
| 2026-05-07 18:36 | 50.30819 | 8.06480 | 29527 ft | 446 kts | 163° |
| 2026-05-07 18:37 | 50.27868 | 8.08016 | 29833 ft | 448 kts | 163° |
| 2026-05-07 18:37 | 50.24897 | 8.09556 | 30110 ft | 451 kts | 163° |
| 2026-05-07 18:37 | 50.21913 | 8.11099 | 30347 ft | 453 kts | 163° |
| 2026-05-07 18:37 | 50.18918 | 8.12643 | 30594 ft | 455 kts | 163° |
| 2026-05-07 18:38 | 50.15911 | 8.14193 | 30834 ft | 456 kts | 163° |
| 2026-05-07 18:38 | 50.12835 | 8.15408 | 31058 ft | 456 kts | 172° |
| 2026-05-07 18:38 | 50.09685 | 8.15969 | 31310 ft | 456 kts | 177° |
| 2026-05-07 18:38 | 50.06529 | 8.16395 | 31641 ft | 455 kts | 176° |
| 2026-05-07 18:39 | 50.03376 | 8.16828 | 31971 ft | 454 kts | 176° |
| 2026-05-07 18:39 | 50.00227 | 8.17263 | 32305 ft | 454 kts | 176° |
| 2026-05-07 18:39 | 49.97085 | 8.17702 | 32638 ft | 453 kts | 176° |
| 2026-05-07 18:39 | 49.93946 | 8.18142 | 32955 ft | 453 kts | 176° |
| 2026-05-07 18:40 | 49.90813 | 8.18581 | 33059 ft | 448 kts | 176° |
| 2026-05-07 18:40 | 49.84672 | 8.19441 | 33063 ft | 441 kts | 177° |
| 2026-05-07 18:41 | 49.78560 | 8.20274 | 33065 ft | 441 kts | 177° |
| 2026-05-07 18:41 | 49.72450 | 8.21112 | 33060 ft | 441 kts | 177° |
| 2026-05-07 18:42 | 49.66342 | 8.21949 | 33056 ft | 441 kts | 177° |
| 2026-05-07 18:42 | 49.60270 | 8.22785 | 33059 ft | 441 kts | 177° |
| 2026-05-07 18:43 | 49.54120 | 8.23633 | 33058 ft | 441 kts | 177° |
| 2026-05-07 18:43 | 49.48013 | 8.24465 | 33053 ft | 440 kts | 177° |
| 2026-05-07 18:44 | 49.41914 | 8.25291 | 33039 ft | 440 kts | 177° |
| 2026-05-07 18:44 | 49.35859 | 8.26106 | 33052 ft | 440 kts | 177° |
| 2026-05-07 18:45 | 49.29761 | 8.26924 | 33053 ft | 440 kts | 177° |
| 2026-05-07 18:45 | 49.23633 | 8.27762 | 33204 ft | 446 kts | 177° |
| 2026-05-07 18:45 | 49.20533 | 8.28183 | 33464 ft | 447 kts | 178° |
| 2026-05-07 18:46 | 49.17436 | 8.28598 | 33793 ft | 447 kts | 178° |
| 2026-05-07 18:46 | 49.14339 | 8.29010 | 34120 ft | 446 kts | 178° |
| 2026-05-07 18:46 | 49.11249 | 8.29387 | 34400 ft | 445 kts | 179° |
| 2026-05-07 18:46 | 49.08161 | 8.29719 | 34672 ft | 444 kts | 179° |
| 2026-05-07 18:47 | 49.05076 | 8.30022 | 34940 ft | 444 kts | 179° |
| 2026-05-07 18:47 | 49.01994 | 8.30316 | 35051 ft | 444 kts | 179° |
| 2026-05-07 18:47 | 48.98913 | 8.30615 | 35059 ft | 443 kts | 179° |
| 2026-05-07 18:48 | 48.92773 | 8.31232 | 35063 ft | 442 kts | 179° |
| 2026-05-07 18:48 | 48.86639 | 8.31860 | 35062 ft | 442 kts | 179° |
| 2026-05-07 18:49 | 48.80502 | 8.32499 | 35060 ft | 442 kts | 179° |
| 2026-05-07 18:49 | 48.74378 | 8.33141 | 35049 ft | 441 kts | 179° |
| 2026-05-07 18:50 | 48.68259 | 8.33770 | 35057 ft | 441 kts | 179° |
| 2026-05-07 18:50 | 48.62141 | 8.34389 | 35060 ft | 440 kts | 179° |
| 2026-05-07 18:51 | 48.56026 | 8.35004 | 35062 ft | 440 kts | 179° |
| 2026-05-07 18:51 | 48.49918 | 8.35622 | 35065 ft | 440 kts | 179° |
| 2026-05-07 18:52 | 48.43809 | 8.36231 | 35077 ft | 440 kts | 179° |
| 2026-05-07 18:52 | 48.37700 | 8.36850 | 35075 ft | 440 kts | 179° |
| 2026-05-07 18:53 | 48.31589 | 8.37475 | 35059 ft | 440 kts | 180° |
| 2026-05-07 18:53 | 48.25482 | 8.38093 | 35072 ft | 440 kts | 180° |
| 2026-05-07 18:54 | 48.19381 | 8.38706 | 35071 ft | 440 kts | 180° |
| 2026-05-07 18:54 | 48.13282 | 8.39312 | 35069 ft | 439 kts | 180° |
| 2026-05-07 18:55 | 48.07183 | 8.39923 | 35071 ft | 439 kts | 180° |
| 2026-05-07 18:55 | 48.01128 | 8.40526 | 35065 ft | 439 kts | 180° |
| 2026-05-07 18:56 | 47.94993 | 8.41131 | 35070 ft | 439 kts | 180° |
| 2026-05-07 18:56 | 47.88898 | 8.41733 | 35052 ft | 439 kts | 180° |
| 2026-05-07 18:57 | 47.82827 | 8.42335 | 35058 ft | 438 kts | 180° |
| 2026-05-07 18:57 | 47.76781 | 8.42931 | 35066 ft | 438 kts | 180° |
| 2026-05-07 18:58 | 47.70698 | 8.43528 | 35065 ft | 438 kts | 180° |
| 2026-05-07 18:58 | 47.64581 | 8.44222 | 35044 ft | 439 kts | 179° |
| 2026-05-07 18:59 | 47.58543 | 8.45154 | 35049 ft | 439 kts | 178° |
| 2026-05-07 18:59 | 47.52469 | 8.46133 | 35050 ft | 439 kts | 178° |
| 2026-05-07 19:00 | 47.46393 | 8.47046 | 35034 ft | 439 kts | 179° |
| 2026-05-07 19:00 | 47.40324 | 8.47923 | 35046 ft | 438 kts | 179° |
| 2026-05-07 19:01 | 47.34255 | 8.48802 | 35048 ft | 438 kts | 179° |
| 2026-05-07 19:01 | 47.28187 | 8.49682 | 35055 ft | 438 kts | 179° |
| 2026-05-07 19:02 | 47.22122 | 8.50569 | 35040 ft | 438 kts | 179° |
| 2026-05-07 19:02 | 47.16061 | 8.51451 | 35039 ft | 438 kts | 179° |
| 2026-05-07 19:03 | 47.09999 | 8.52333 | 35048 ft | 438 kts | 179° |
| 2026-05-07 19:03 | 47.03938 | 8.53207 | 35035 ft | 437 kts | 180° |
| 2026-05-07 19:04 | 46.97880 | 8.54086 | 35043 ft | 437 kts | 180° |
| 2026-05-07 19:04 | 46.91864 | 8.54949 | 35053 ft | 437 kts | 180° |
| 2026-05-07 19:05 | 46.85823 | 8.55818 | 35039 ft | 437 kts | 180° |
| 2026-05-07 19:05 | 46.82757 | 8.56258 | 34876 ft | 436 kts | 180° |
| 2026-05-07 19:05 | 46.79778 | 8.56684 | 34637 ft | 436 kts | 180° |
| 2026-05-07 19:05 | 46.76761 | 8.57114 | 34390 ft | 436 kts | 180° |
| 2026-05-07 19:06 | 46.73747 | 8.57546 | 34152 ft | 435 kts | 180° |
| 2026-05-07 19:06 | 46.67747 | 8.58408 | 33623 ft | 430 kts | 180° |
| 2026-05-07 19:06 | 46.64774 | 8.58830 | 33332 ft | 429 kts | 180° |
| 2026-05-07 19:07 | 46.61815 | 8.59249 | 33053 ft | 426 kts | 180° |
| 2026-05-07 19:07 | 46.58871 | 8.59665 | 32785 ft | 424 kts | 180° |
| 2026-05-07 19:07 | 46.55945 | 8.60082 | 32412 ft | 421 kts | 180° |
| 2026-05-07 19:07 | 46.53043 | 8.60499 | 31867 ft | 418 kts | 180° |
| 2026-05-07 19:08 | 46.50158 | 8.60914 | 31339 ft | 415 kts | 180° |
| 2026-05-07 19:08 | 46.47300 | 8.61323 | 30812 ft | 411 kts | 180° |
| 2026-05-07 19:08 | 46.44464 | 8.61724 | 30296 ft | 408 kts | 180° |
| 2026-05-07 19:08 | 46.41646 | 8.62117 | 29736 ft | 406 kts | 180° |
| 2026-05-07 19:09 | 46.38853 | 8.62510 | 29215 ft | 400 kts | 180° |
| 2026-05-07 19:09 | 46.36104 | 8.62902 | 28736 ft | 394 kts | 180° |
| 2026-05-07 19:09 | 46.33387 | 8.63288 | 28257 ft | 390 kts | 179° |
| 2026-05-07 19:09 | 46.30698 | 8.63665 | 27785 ft | 386 kts | 179° |
| 2026-05-07 19:10 | 46.28035 | 8.64036 | 27325 ft | 382 kts | 179° |
| 2026-05-07 19:10 | 46.25406 | 8.64400 | 26890 ft | 378 kts | 179° |
| 2026-05-07 19:10 | 46.22809 | 8.64759 | 26440 ft | 373 kts | 179° |
| 2026-05-07 19:10 | 46.20237 | 8.65114 | 26017 ft | 368 kts | 179° |
| 2026-05-07 19:11 | 46.17697 | 8.65470 | 25586 ft | 365 kts | 179° |
| 2026-05-07 19:11 | 46.15177 | 8.65828 | 25157 ft | 363 kts | 179° |
| 2026-05-07 19:11 | 46.12671 | 8.66197 | 24724 ft | 362 kts | 176° |
| 2026-05-07 19:11 | 46.10214 | 8.67007 | 24284 ft | 362 kts | 165° |
| 2026-05-07 19:12 | 46.07908 | 8.68452 | 23834 ft | 362 kts | 155° |
| 2026-05-07 19:12 | 46.06450 | 8.69607 | 23541 ft | 360 kts | 154° |
| 2026-05-07 19:12 | 46.03522 | 8.71916 | 22873 ft | 357 kts | 155° |
| 2026-05-07 19:12 | 46.01349 | 8.73623 | 22420 ft | 355 kts | 155° |
| 2026-05-07 19:13 | 45.99185 | 8.75314 | 21988 ft | 353 kts | 155° |
| 2026-05-07 19:13 | 45.97033 | 8.76994 | 21544 ft | 352 kts | 155° |
| 2026-05-07 19:13 | 45.94886 | 8.78666 | 21100 ft | 351 kts | 155° |
| 2026-05-07 19:13 | 45.92744 | 8.80336 | 20654 ft | 350 kts | 155° |
| 2026-05-07 19:14 | 45.91331 | 8.81437 | 20361 ft | 349 kts | 155° |
| 2026-05-07 19:14 | 45.89198 | 8.83097 | 19925 ft | 347 kts | 155° |
| 2026-05-07 19:14 | 45.87071 | 8.84749 | 19471 ft | 348 kts | 155° |
| 2026-05-07 19:14 | 45.84947 | 8.86399 | 19047 ft | 347 kts | 154° |
| 2026-05-07 19:15 | 45.82824 | 8.88051 | 18609 ft | 347 kts | 154° |
| 2026-05-07 19:15 | 45.80715 | 8.89694 | 18335 ft | 341 kts | 154° |
| 2026-05-07 19:15 | 45.78644 | 8.91302 | 18019 ft | 337 kts | 154° |
| 2026-05-07 19:15 | 45.76580 | 8.92898 | 17572 ft | 337 kts | 154° |
| 2026-05-07 19:16 | 45.74532 | 8.94482 | 17133 ft | 336 kts | 154° |
| 2026-05-07 19:16 | 45.72483 | 8.96064 | 16785 ft | 330 kts | 154° |
| 2026-05-07 19:16 | 45.70470 | 8.97619 | 16118 ft | 328 kts | 154° |
| 2026-05-07 19:16 | 45.68475 | 8.99161 | 15513 ft | 324 kts | 154° |
| 2026-05-07 19:17 | 45.66490 | 9.00692 | 15076 ft | 325 kts | 154° |
| 2026-05-07 19:17 | 45.64511 | 9.02218 | 14803 ft | 321 kts | 154° |
| 2026-05-07 19:17 | 45.62546 | 9.03733 | 14434 ft | 320 kts | 154° |
| 2026-05-07 19:17 | 45.60599 | 9.05232 | 13856 ft | 317 kts | 154° |
| 2026-05-07 19:18 | 45.58666 | 9.06718 | 13219 ft | 314 kts | 154° |
| 2026-05-07 19:18 | 45.56760 | 9.08179 | 12617 ft | 309 kts | 153° |
| 2026-05-07 19:18 | 45.54880 | 9.09618 | 12124 ft | 302 kts | 153° |
| 2026-05-07 19:18 | 45.53085 | 9.10993 | 11897 ft | 286 kts | 153° |
| 2026-05-07 19:19 | 45.51319 | 9.12238 | 11638 ft | 281 kts | 161° |
| 2026-05-07 19:19 | 45.49440 | 9.12872 | 11388 ft | 276 kts | 176° |
| 2026-05-07 19:19 | 45.47534 | 9.13077 | 11139 ft | 274 kts | 177° |
| 2026-05-07 19:19 | 45.45651 | 9.13280 | 10894 ft | 273 kts | 176° |
| 2026-05-07 19:20 | 45.43760 | 9.13487 | 10648 ft | 272 kts | 176° |
| 2026-05-07 19:20 | 45.41877 | 9.13696 | 10405 ft | 271 kts | 176° |
| 2026-05-07 19:20 | 45.39996 | 9.13908 | 10160 ft | 270 kts | 176° |
| 2026-05-07 19:20 | 45.38126 | 9.14122 | 9916 ft | 269 kts | 176° |
| 2026-05-07 19:21 | 45.36264 | 9.14335 | 9799 ft | 269 kts | 176° |
| 2026-05-07 19:21 | 45.34399 | 9.14548 | 9650 ft | 269 kts | 176° |
| 2026-05-07 19:21 | 45.32539 | 9.14756 | 9531 ft | 268 kts | 176° |
| 2026-05-07 19:21 | 45.30685 | 9.14960 | 9401 ft | 267 kts | 176° |
| 2026-05-07 19:22 | 45.28833 | 9.15166 | 9273 ft | 267 kts | 176° |
| 2026-05-07 19:22 | 45.26983 | 9.15373 | 9144 ft | 266 kts | 176° |
| 2026-05-07 19:22 | 45.25143 | 9.15581 | 9017 ft | 263 kts | 176° |
| 2026-05-07 19:22 | 45.23375 | 9.15782 | 8889 ft | 253 kts | 176° |
| 2026-05-07 19:23 | 45.21623 | 9.15977 | 8751 ft | 247 kts | 176° |
| 2026-05-07 19:23 | 45.19913 | 9.16163 | 8623 ft | 245 kts | 176° |
| 2026-05-07 19:23 | 45.18216 | 9.16346 | 8499 ft | 244 kts | 176° |
| 2026-05-07 19:23 | 45.16544 | 9.16526 | 8372 ft | 244 kts | 176° |
| 2026-05-07 19:24 | 45.14856 | 9.16710 | 8243 ft | 243 kts | 176° |
| 2026-05-07 19:24 | 45.13171 | 9.16897 | 8116 ft | 243 kts | 176° |
| 2026-05-07 19:24 | 45.11491 | 9.17086 | 7990 ft | 242 kts | 176° |
| 2026-05-07 19:24 | 45.09812 | 9.17274 | 7865 ft | 241 kts | 176° |
| 2026-05-07 19:25 | 45.08141 | 9.17461 | 7744 ft | 241 kts | 176° |
| 2026-05-07 19:25 | 45.06474 | 9.17650 | 7619 ft | 240 kts | 176° |
| 2026-05-07 19:25 | 45.04814 | 9.17837 | 7495 ft | 239 kts | 176° |
| 2026-05-07 19:25 | 45.03153 | 9.18025 | 7418 ft | 239 kts | 176° |
| 2026-05-07 19:26 | 45.01495 | 9.18211 | 7306 ft | 239 kts | 176° |
| 2026-05-07 19:26 | 44.99846 | 9.18405 | 7148 ft | 237 kts | 172° |
| 2026-05-07 19:26 | 44.98343 | 9.19252 | 6992 ft | 235 kts | 140° |
| 2026-05-07 19:26 | 44.97424 | 9.21120 | 6813 ft | 235 kts | 106° |
| 2026-05-07 19:27 | 44.97377 | 9.23398 | 6641 ft | 235 kts | 78° |
| 2026-05-07 19:27 | 44.97651 | 9.25675 | 6466 ft | 235 kts | 84° |
| 2026-05-07 19:27 | 44.97779 | 9.27976 | 6299 ft | 234 kts | 87° |
| 2026-05-07 19:27 | 44.98030 | 9.30230 | 6131 ft | 233 kts | 66° |
| 2026-05-07 19:28 | 44.99056 | 9.31945 | 5970 ft | 232 kts | 30° |
| 2026-05-07 19:28 | 45.00608 | 9.32473 | 5801 ft | 233 kts | 357° |
| 2026-05-07 19:28 | 45.02229 | 9.32309 | 5643 ft | 234 kts | 355° |
| 2026-05-07 19:28 | 45.03850 | 9.32122 | 5481 ft | 233 kts | 355° |
| 2026-05-07 19:29 | 45.05466 | 9.31935 | 5317 ft | 233 kts | 355° |
| 2026-05-07 19:29 | 45.07059 | 9.31755 | 5165 ft | 232 kts | 356° |
| 2026-05-07 19:29 | 45.08687 | 9.31564 | 4998 ft | 232 kts | 355° |
| 2026-05-07 19:29 | 45.10292 | 9.31374 | 4849 ft | 231 kts | 356° |
| 2026-05-07 19:30 | 45.11893 | 9.31200 | 4693 ft | 230 kts | 356° |
| 2026-05-07 19:30 | 45.13492 | 9.31030 | 4544 ft | 230 kts | 356° |
| 2026-05-07 19:30 | 45.15087 | 9.30860 | 4392 ft | 230 kts | 356° |
| 2026-05-07 19:30 | 45.16678 | 9.30690 | 4238 ft | 229 kts | 356° |
| 2026-05-07 19:31 | 45.18264 | 9.30521 | 4089 ft | 229 kts | 356° |
| 2026-05-07 19:31 | 45.19827 | 9.30354 | 3947 ft | 228 kts | 356° |
| 2026-05-07 19:31 | 45.21409 | 9.30185 | 3798 ft | 228 kts | 355° |
| 2026-05-07 19:31 | 45.23007 | 9.30014 | 3647 ft | 227 kts | 355° |
| 2026-05-07 19:32 | 45.24556 | 9.29849 | 3501 ft | 225 kts | 355° |
| 2026-05-07 19:32 | 45.26094 | 9.29684 | 3350 ft | 218 kts | 355° |
| 2026-05-07 19:32 | 45.27583 | 9.29525 | 3215 ft | 212 kts | 355° |
| 2026-05-07 19:32 | 45.29025 | 9.29370 | 3098 ft | 206 kts | 355° |
| 2026-05-07 19:33 | 45.30452 | 9.29217 | 2865 ft | 205 kts | 355° |
| 2026-05-07 19:33 | 45.31870 | 9.29065 | 2620 ft | 202 kts | 355° |
| 2026-05-07 19:33 | 45.33226 | 9.28921 | 2341 ft | 189 kts | 354° |
| 2026-05-07 19:33 | 45.34492 | 9.28785 | 2114 ft | 173 kts | 354° |
| 2026-05-07 19:34 | 45.35639 | 9.28662 | 1870 ft | 159 kts | 353° |
| 2026-05-07 19:34 | 45.36719 | 9.28546 | 1667 ft | 153 kts | 354° |
| 2026-05-07 19:34 | 45.37767 | 9.28433 | 1458 ft | 151 kts | 353° |
| 2026-05-07 19:34 | 45.38809 | 9.28321 | 1264 ft | 150 kts | 353° |
| 2026-05-07 19:35 | 45.39844 | 9.28209 | 1072 ft | 148 kts | 355° |
| 2026-05-07 19:35 | 45.40857 | 9.28100 | 903 ft | 144 kts | 355° |
| 2026-05-07 19:35 | 45.41852 | 9.27995 | 714 ft | 142 kts | 355° |
| 2026-05-07 19:35 | 45.42835 | 9.27893 | 523 ft | 141 kts | 355° |
| 2026-05-07 19:36 | 45.43810 | 9.27786 | 368 ft | 137 kts | 356° |
| 2026-05-07 19:36 | 45.44665 | 9.27691 | 359 ft | 100 kts | 355° |
| 2026-05-07 19:36 | 45.45074 | 9.27648 | 358 ft | 35 kts | 355° |
| 2026-05-07 19:36 | 45.45262 | 9.27639 | 359 ft | 23 kts | 11° |
| 2026-05-07 19:37 | 45.45338 | 9.27680 | 359 ft | 6 kts | 26° |
| 2026-05-07 19:37 | 45.45368 | 9.27702 | 362 ft | 4 kts | 28° |
| 2026-05-07 19:37 | 45.45382 | 9.27712 | 360 ft | 1 kts | 27° |
| 2026-05-07 19:37 | 45.45384 | 9.27714 | 364 ft | 0 kts | 27° |
| 2026-05-07 19:38 | 45.45392 | 9.27720 | 362 ft | 4 kts | 26° |
| 2026-05-07 19:38 | 45.45432 | 9.27754 | 363 ft | 9 kts | 38° |
| 2026-05-07 19:38 | 45.45486 | 9.27812 | 362 ft | 10 kts | 11° |
| 2026-05-07 19:38 | 45.45558 | 9.27816 | 363 ft | 11 kts | 1° |
| 2026-05-07 19:39 | 45.45625 | 9.27817 | 363 ft | 9 kts | 1° |
| 2026-05-07 19:39 | 45.45692 | 9.27819 | 363 ft | 10 kts | 1° |
| 2026-05-07 19:39 | 45.45764 | 9.27820 | 363 ft | 10 kts | 360° |
| 2026-05-07 19:39 | 45.45828 | 9.27821 | 366 ft | 9 kts | 0° |
| 2026-05-07 19:40 | 45.45886 | 9.27825 | 363 ft | 9 kts | 17° |
| 2026-05-07 19:40 | 45.45907 | 9.27891 | 363 ft | 7 kts | 88° |
| 2026-05-07 19:40 | 45.45908 | 9.27952 | 366 ft | 5 kts | 79° |
| 2026-05-07 19:40 | 45.45939 | 9.27966 | 364 ft | 3 kts | 0° |
| 2026-05-07 19:41 | 45.45962 | 9.27967 | 363 ft | 2 kts | 1° |
| 2026-05-07 19:41 | 45.45971 | 9.27967 | 363 ft | 0 kts | 1° |